createdAt,value
2023-04-01T17:23:39.724Z,20.27
2023-04-01T17:24:10.268Z,5.45
2023-04-01T17:24:24.363Z,5.80
2023-04-01T17:24:38.377Z,6.32
2023-04-01T17:25:04.639Z,8.05
2023-04-01T17:25:25.992Z,4.88
2023-04-01T17:26:09.606Z,4.80
2023-04-01T17:26:42.394Z,3.60
2023-04-01T17:27:14.331Z,6.50
2023-04-01T17:27:39.958Z,9.45
2023-04-01T17:27:56.838Z,8.90
2023-04-01T17:28:27.054Z,3.08
2023-04-01T17:29:04.446Z,5.65
2023-04-01T17:29:57.884Z,5.35
2023-04-01T17:30:24.633Z,5.43
2023-04-01T17:30:42.109Z,12.57
2023-04-01T17:31:20.278Z,9.23
2023-04-01T17:31:52.542Z,8.25
2023-04-01T17:32:09.233Z,9.07
2023-04-01T17:32:37.274Z,6.88
2023-04-01T17:33:12.946Z,8.10
2023-04-01T17:33:24.361Z,7.13
2023-04-01T17:33:50.527Z,12.50
2023-04-01T17:34:13.851Z,8.20
2023-04-01T17:35:09.829Z,5.75
2023-04-01T17:35:40.452Z,3.97
2023-04-01T17:35:57.975Z,8.27
2023-04-01T17:36:21.304Z,7.63
2023-04-01T17:36:37.624Z,4.90
2023-04-01T17:37:04.235Z,2.95
2023-04-01T17:37:21.641Z,6.43
2023-04-01T17:37:36.020Z,7.47
2023-04-01T17:37:58.662Z,5.60
2023-04-01T17:38:37.797Z,5.90
2023-04-01T17:39:02.459Z,5.45
2023-04-01T17:39:44.292Z,6.22
2023-04-01T17:40:07.533Z,9.05
2023-04-01T17:40:27.791Z,8.85
2023-04-01T17:40:52.440Z,5.32
2023-04-01T17:41:26.200Z,14.05
2023-04-01T17:41:49.043Z,6.90
2023-04-01T17:42:06.420Z,5.40
2023-04-01T17:42:35.157Z,4.35
2023-04-01T17:43:13.324Z,7.45
2023-04-01T17:43:39.694Z,4.15
2023-04-01T17:44:06.808Z,8.68
2023-04-01T17:44:46.899Z,5.80
2023-04-01T17:45:08.695Z,8.70
2023-04-01T17:45:43.427Z,9.68
2023-04-01T17:45:58.554Z,12.10
2023-04-01T17:46:33.570Z,8.73
2023-04-01T17:47:08.810Z,7.70
2023-04-01T17:47:30.183Z,3.42
2023-04-01T17:48:04.310Z,3.83
2023-04-01T17:48:18.749Z,6.82
2023-04-01T17:48:46.260Z,3.88
2023-04-01T17:49:12.789Z,8.93
2023-04-01T17:49:34.717Z,6.97
2023-04-01T17:49:54.932Z,4.88
2023-04-01T17:50:19.420Z,3.42
2023-04-01T17:50:54.174Z,7.55
2023-04-01T17:51:40.994Z,3.13
2023-04-01T17:52:30.362Z,7.07
2023-04-01T17:52:50.870Z,7.25
2023-04-01T17:53:16.527Z,4.65
2023-04-01T17:53:33.671Z,7.50
2023-04-01T17:53:48.088Z,6.88
2023-04-01T17:54:18.237Z,3.60
2023-04-01T17:54:46.594Z,5.78
2023-04-01T17:55:31.802Z,9.20
2023-04-01T17:55:47.464Z,10.60
2023-04-01T17:56:35.840Z,9.52
2023-04-01T17:57:08.688Z,7.60
2023-04-01T17:57:44.549Z,3.85
2023-04-01T17:58:07.674Z,6.82
2023-04-01T17:58:23.304Z,3.80
2023-04-01T17:58:54.211Z,4.05
2023-04-01T17:59:26.934Z,6.97
2023-04-01T17:59:44.469Z,9.38
2023-04-01T18:00:13.898Z,5.38
2023-04-01T18:00:45.964Z,6.25
2023-04-01T18:01:11.402Z,5.47
2023-04-01T18:01:46.585Z,7.60
2023-04-01T18:02:23.642Z,6.70
2023-04-01T18:02:35.192Z,5.38
2023-04-01T18:03:12.929Z,5.65
2023-04-01T18:03:52.360Z,8.45
2023-04-01T18:04:08.861Z,6.35
2023-04-01T18:04:36.593Z,5.90
2023-04-01T18:05:20.191Z,8.30
2023-04-01T18:05:43.389Z,8.35
2023-04-01T18:06:15.711Z,4.82
2023-04-01T18:07:08.466Z,5.95
2023-04-01T18:07:51.382Z,5.82
2023-04-01T18:08:11.782Z,4.07
2023-04-01T18:08:57.514Z,8.55
2023-04-01T18:09:38.580Z,7.70
2023-04-01T18:10:24.671Z,3.80
2023-04-01T18:10:53.123Z,3.20
2023-04-01T18:11:33.572Z,4.47
2023-04-01T18:11:44.899Z,6.78
2023-04-01T18:12:22.218Z,6.05
2023-04-01T18:12:54.818Z,7.18
2023-04-01T18:13:27.722Z,9.75
2023-04-01T18:14:13.153Z,9.68
2023-04-01T18:14:55.652Z,13.05
2023-04-01T18:15:45.948Z,7.75
2023-04-01T18:16:21.743Z,4.45
2023-04-01T18:17:03.047Z,4.70
2023-04-01T18:17:42.146Z,5.88
2023-04-01T18:17:56.430Z,8.70
2023-04-01T18:18:37.187Z,7.50
2023-04-01T18:19:10.507Z,10.40
2023-04-01T18:19:41.266Z,9.82
2023-04-01T18:20:35.075Z,9.80
2023-04-01T18:21:02.131Z,9.43
2023-04-01T18:21:40.019Z,7.85
2023-04-01T18:22:07.088Z,10.70
2023-04-01T18:22:43.028Z,11.95
2023-04-01T18:23:13.159Z,7.80
2023-04-01T18:23:27.619Z,9.10
2023-04-01T18:23:59.182Z,9.95
2023-04-01T18:24:46.951Z,6.97
2023-04-01T18:25:01.399Z,7.70
2023-04-01T18:25:23.417Z,7.93
2023-04-01T18:25:38.642Z,6.38
2023-04-01T18:25:56.402Z,5.72
2023-04-01T18:26:25.712Z,6.43
2023-04-01T18:26:41.639Z,7.85
2023-04-01T18:27:05.643Z,8.93
2023-04-01T18:27:24.858Z,8.68
2023-04-01T18:27:42.488Z,9.18
2023-04-01T18:28:16.449Z,7.18
2023-04-01T18:28:43.088Z,6.13
2023-04-01T18:29:04.564Z,7.57
2023-04-01T18:29:18.748Z,6.22
2023-04-01T18:29:48.553Z,7.07
2023-04-01T18:30:26.855Z,6.10
2023-04-01T18:30:45.225Z,6.60
2023-04-01T18:31:02.719Z,4.95
2023-04-01T18:31:21.758Z,4.80
2023-04-01T18:31:39.270Z,6.63
2023-04-01T18:32:08.320Z,6.05
2023-04-01T18:32:34.980Z,5.93
2023-04-01T18:32:49.461Z,6.43
2023-04-01T18:33:17.813Z,10.95
2023-04-01T18:33:57.735Z,11.45
2023-04-01T18:34:40.374Z,7.50
2023-04-01T18:35:17.597Z,9.90
2023-04-01T18:35:57.213Z,14.25
2023-04-01T18:36:11.536Z,5.78
2023-04-01T18:36:48.096Z,6.35
2023-04-01T18:37:13.220Z,6.03
2023-04-01T18:37:37.503Z,5.28
2023-04-01T18:38:04.641Z,5.65
2023-04-01T18:38:36.633Z,7.07
2023-04-01T18:39:09.883Z,6.28
2023-04-01T18:39:38.062Z,4.65
2023-04-01T18:39:58.527Z,4.85
2023-04-01T18:40:23.554Z,4.35
2023-04-01T18:40:41.577Z,5.97
2023-04-01T18:41:17.574Z,6.13
2023-04-01T18:41:44.289Z,7.05
2023-04-01T18:42:17.702Z,8.18
2023-04-01T18:42:54.006Z,5.30
2023-04-01T18:43:31.685Z,6.60
2023-04-01T18:43:55.151Z,7.45
2023-04-01T18:44:27.752Z,6.70
2023-04-01T18:44:53.493Z,8.00
2023-04-01T18:45:07.780Z,7.82
2023-04-01T18:45:50.429Z,7.40
2023-04-01T18:46:07.970Z,9.25
2023-04-01T18:46:35.077Z,7.25
2023-04-01T18:47:21.635Z,4.97
2023-04-01T18:47:48.127Z,10.55
2023-04-01T18:48:12.521Z,9.18
2023-04-01T18:48:23.945Z,10.23
2023-04-01T18:49:12.912Z,8.65
2023-04-01T18:49:41.842Z,10.88
2023-04-01T18:49:56.819Z,10.18
2023-04-01T18:50:41.707Z,8.52
2023-04-01T18:51:03.901Z,11.35
2023-04-01T18:51:22.452Z,11.48
2023-04-01T18:51:40.181Z,6.97
2023-04-01T18:52:16.260Z,6.10
2023-04-01T18:52:38.083Z,8.95
2023-04-01T18:52:55.173Z,11.07
2023-04-01T18:53:46.695Z,13.05
2023-04-01T18:54:12.903Z,6.78
2023-04-01T18:54:30.606Z,9.77
2023-04-01T18:55:03.679Z,6.63
2023-04-01T18:55:15.038Z,14.63
2023-04-01T18:55:33.026Z,10.75
2023-04-01T18:56:07.605Z,12.52
2023-04-01T18:56:31.538Z,10.30
2023-04-01T18:56:45.425Z,7.35
2023-04-01T18:57:15.289Z,6.57
2023-04-01T18:57:40.638Z,13.50
2023-04-01T18:58:17.897Z,10.23
2023-04-01T18:58:45.186Z,9.73
2023-04-01T18:59:06.177Z,12.57
2023-04-01T18:59:33.731Z,13.93
2023-04-01T19:00:05.603Z,6.90
2023-04-01T19:00:28.585Z,6.10
2023-04-01T19:00:45.252Z,9.55
2023-04-01T19:01:12.103Z,7.97
2023-04-01T19:01:43.880Z,7.65
2023-04-01T19:02:08.938Z,6.28
2023-04-01T19:02:26.130Z,6.53
2023-04-01T19:02:44.538Z,8.27
2023-04-01T19:03:13.671Z,12.50
2023-04-01T19:03:56.327Z,7.68
2023-04-01T19:04:40.831Z,9.50
2023-04-01T19:05:06.745Z,9.65
2023-04-01T19:05:40.643Z,9.05
2023-04-01T19:05:54.460Z,6.28
2023-04-01T19:06:24.082Z,8.00
2023-04-01T19:06:50.088Z,11.27
2023-04-01T19:07:22.625Z,4.90
2023-04-01T19:07:45.259Z,6.65
2023-04-01T19:08:13.738Z,10.73
2023-04-01T19:08:40.078Z,8.20
2023-04-01T19:08:52.977Z,5.70
2023-04-01T19:09:25.384Z,4.95
2023-04-01T19:09:48.849Z,7.63
2023-04-01T19:10:25.826Z,7.75
2023-04-01T19:11:14.936Z,4.57
2023-04-01T19:11:29.111Z,5.63
2023-04-01T19:12:13.661Z,7.38
2023-04-01T19:12:49.391Z,6.63
2023-04-01T19:13:22.763Z,9.13
2023-04-01T19:14:00.378Z,12.13
2023-04-01T19:14:30.845Z,10.55
2023-04-01T19:14:59.391Z,6.45
2023-04-01T19:15:32.729Z,4.80
2023-04-01T19:16:12.809Z,2.95
2023-04-01T19:16:54.196Z,7.18
2023-04-01T19:17:29.634Z,5.18
2023-04-01T19:18:10.120Z,5.97
2023-04-01T19:19:09.997Z,10.70
2023-04-01T19:19:41.841Z,4.97
2023-04-01T19:20:03.313Z,9.90
2023-04-01T19:20:38.623Z,5.82
2023-04-01T19:21:25.157Z,5.68
2023-04-01T19:21:54.697Z,2.85
2023-04-01T19:22:40.393Z,5.50
2023-04-01T19:23:08.783Z,6.03
2023-04-01T19:23:23.542Z,5.47
2023-04-01T19:23:52.702Z,4.50
2023-04-01T19:24:41.411Z,4.78
2023-04-01T19:25:36.894Z,4.70
2023-04-01T19:25:57.993Z,3.50
2023-04-01T19:26:23.382Z,5.07
2023-04-01T19:26:37.413Z,4.97
2023-04-01T19:27:03.673Z,3.03
2023-04-01T19:27:59.086Z,4.50
2023-04-01T19:28:28.494Z,5.05
2023-04-01T19:28:52.018Z,3.60
2023-04-01T19:29:42.055Z,7.20
2023-04-01T19:30:03.133Z,3.38
2023-04-01T19:30:43.601Z,3.42
2023-04-01T19:31:19.583Z,6.18
2023-04-01T19:31:36.887Z,4.82
2023-04-01T19:31:54.386Z,6.13
2023-04-01T19:32:19.198Z,4.50
2023-04-01T19:32:48.428Z,4.55
2023-04-01T19:33:18.345Z,5.57
2023-04-01T19:33:58.593Z,5.18
2023-04-01T19:34:28.130Z,9.10
2023-04-01T19:34:50.792Z,4.30
2023-04-01T19:35:30.212Z,5.10
2023-04-01T19:35:50.595Z,6.50
2023-04-01T19:36:14.155Z,7.93
2023-04-01T19:36:34.483Z,8.20
2023-04-01T19:36:59.918Z,5.80
2023-04-01T19:37:32.357Z,6.72
2023-04-01T19:38:03.477Z,5.40
2023-04-01T19:38:39.586Z,8.05
2023-04-01T19:39:04.908Z,4.72
2023-04-01T19:39:20.273Z,7.93
2023-04-01T19:39:58.122Z,5.55
2023-04-01T19:40:31.895Z,5.45
2023-04-01T19:41:17.179Z,8.03
2023-04-01T19:41:37.622Z,6.28
2023-04-01T19:42:18.363Z,5.03
2023-04-01T19:42:42.558Z,8.55
2023-04-01T19:43:29.146Z,7.50
2023-04-01T19:43:51.909Z,6.63
2023-04-01T19:44:22.316Z,8.50
2023-04-01T19:44:57.588Z,7.82
2023-04-01T19:45:15.009Z,9.40
2023-04-01T19:45:52.385Z,9.43
2023-04-01T19:46:17.375Z,10.82
2023-04-01T19:46:46.668Z,9.75
2023-04-01T19:47:12.742Z,6.18
2023-04-01T19:47:43.137Z,5.82
2023-04-01T19:48:06.788Z,6.45
2023-04-01T19:48:50.343Z,6.97
2023-04-01T19:49:27.796Z,6.50
2023-04-01T19:50:11.605Z,5.88
2023-04-01T19:50:36.520Z,7.25
2023-04-01T19:50:58.679Z,7.72
2023-04-01T19:51:25.222Z,6.75
2023-04-01T19:51:36.614Z,7.47
2023-04-01T19:52:26.863Z,8.05
2023-04-01T19:52:41.935Z,6.55
2023-04-01T19:52:57.262Z,6.78
2023-04-01T19:53:54.082Z,7.90
2023-04-01T19:54:34.781Z,6.25
2023-04-01T19:55:02.776Z,8.57
2023-04-01T19:55:33.682Z,4.82
2023-04-01T19:56:07.892Z,9.40
2023-04-01T19:56:21.920Z,7.55
2023-04-01T19:56:56.915Z,6.57
2023-04-01T19:57:30.415Z,8.13
2023-04-01T19:57:52.409Z,6.18
2023-04-01T19:58:14.254Z,4.40
2023-04-01T19:58:59.647Z,4.63
2023-04-01T19:59:10.952Z,6.65
2023-04-01T19:59:25.401Z,8.02
2023-04-01T19:59:59.151Z,9.77
2023-04-01T20:00:26.371Z,4.97
2023-04-01T20:00:44.597Z,6.55
2023-04-01T20:00:59.747Z,5.97
2023-04-01T20:01:22.020Z,4.45
2023-04-01T20:02:06.504Z,5.75
2023-04-01T20:02:51.869Z,5.22
2023-04-01T20:03:24.447Z,7.57
2023-04-01T20:03:49.452Z,7.88
2023-04-01T20:04:14.102Z,6.85
2023-04-01T20:04:43.410Z,7.75
2023-04-01T20:04:57.063Z,4.45
2023-04-01T20:05:36.486Z,6.28
2023-04-01T20:06:19.006Z,6.22
2023-04-01T20:06:46.360Z,6.95
2023-04-01T20:07:03.730Z,6.15
2023-04-01T20:07:26.036Z,5.03
2023-04-01T20:07:49.012Z,5.22
2023-04-01T20:08:19.799Z,4.85
2023-04-01T20:08:52.109Z,4.40
2023-04-01T20:09:26.251Z,4.85
2023-04-01T20:09:46.506Z,8.05
2023-04-01T20:10:55.264Z,7.78
2023-04-01T20:11:38.910Z,3.80
2023-04-01T20:11:56.904Z,3.65
2023-04-01T20:12:10.883Z,4.57
2023-04-01T20:12:50.439Z,7.32
2023-04-01T20:13:15.222Z,5.68
2023-04-01T20:13:37.014Z,6.45
2023-04-01T20:13:54.500Z,4.38
2023-04-01T20:14:43.906Z,3.88
2023-04-01T20:14:59.337Z,3.85
2023-04-01T20:15:28.142Z,4.00
2023-04-01T20:15:59.738Z,4.20
2023-04-01T20:16:13.442Z,3.90
2023-04-01T20:16:56.962Z,3.92
2023-04-01T20:17:33.369Z,5.40
2023-04-01T20:17:47.142Z,3.85
2023-04-01T20:18:03.530Z,3.58
2023-04-01T20:18:24.091Z,4.30
2023-04-01T20:18:48.090Z,4.30
2023-04-01T20:19:01.205Z,4.35
2023-04-01T20:19:13.018Z,4.25
2023-04-01T20:19:29.546Z,4.10
2023-04-01T20:19:46.588Z,3.75
2023-04-01T20:20:23.368Z,3.70
2023-04-01T20:20:35.339Z,3.50
2023-04-01T20:21:04.357Z,3.38
2023-04-01T20:21:15.669Z,2.70
2023-04-01T20:21:37.459Z,2.53
2023-04-01T20:21:50.229Z,2.58
2023-04-01T20:22:05.815Z,3.47
2023-04-01T20:22:33.219Z,3.75
2023-04-01T20:22:44.662Z,4.57
2023-04-01T20:23:18.445Z,4.20
2023-04-01T20:23:57.756Z,4.15
2023-04-01T20:24:21.180Z,6.95
2023-04-01T20:24:59.174Z,5.70
2023-04-01T20:25:52.472Z,4.32
2023-04-01T20:26:08.875Z,4.72
2023-04-01T20:26:30.080Z,4.30
2023-04-01T20:26:51.389Z,3.90
2023-04-01T20:27:31.844Z,4.40
2023-04-01T20:28:13.132Z,5.72
2023-04-01T20:28:33.760Z,2.40
2023-04-01T20:29:19.918Z,4.43
2023-04-01T20:30:00.307Z,8.80
2023-04-01T20:30:36.398Z,5.65
2023-04-01T20:31:09.772Z,10.65
2023-04-01T20:31:28.450Z,4.05
2023-04-01T20:31:43.801Z,3.72
2023-04-01T20:32:24.345Z,4.20
2023-04-01T20:32:50.968Z,5.68
2023-04-01T20:33:21.098Z,4.55
2023-04-01T20:33:57.389Z,5.10
2023-04-01T20:34:47.718Z,4.13
2023-04-01T20:35:31.648Z,4.03
2023-04-01T20:36:12.314Z,5.68
2023-04-01T20:36:36.917Z,5.13
2023-04-01T20:36:57.303Z,4.25
2023-04-01T20:37:22.143Z,5.40
2023-04-01T20:37:38.340Z,9.40
2023-04-01T20:37:58.843Z,6.47
2023-04-01T20:38:39.131Z,7.60
2023-04-01T20:39:24.171Z,4.85
2023-04-01T20:40:03.435Z,4.50
2023-04-01T20:40:29.867Z,6.95
2023-04-01T20:40:45.380Z,4.82
2023-04-01T20:41:27.139Z,5.47
2023-04-01T20:41:53.874Z,5.95
2023-04-01T20:42:36.441Z,4.57
2023-04-01T20:43:25.105Z,5.32
2023-04-01T20:44:08.024Z,5.93
2023-04-01T20:44:40.863Z,7.10
2023-04-01T20:45:10.562Z,5.55
2023-04-01T20:45:33.972Z,3.47
2023-04-01T20:45:58.348Z,3.58
2023-04-01T20:46:31.628Z,6.68
2023-04-01T20:46:49.899Z,4.97
2023-04-01T20:47:21.813Z,5.75
2023-04-01T20:48:05.253Z,5.88
2023-04-01T20:48:49.994Z,5.35
2023-04-01T20:49:26.310Z,8.50
2023-04-01T20:49:46.733Z,5.97
2023-04-01T20:50:00.922Z,9.48
2023-04-01T20:50:27.310Z,8.40
2023-04-01T20:51:06.657Z,5.65
2023-04-01T20:51:24.850Z,3.70
2023-04-01T20:51:44.223Z,5.47
2023-04-01T20:52:09.327Z,6.40
2023-04-01T20:52:26.624Z,5.82
2023-04-01T20:52:46.809Z,6.35
2023-04-01T20:53:08.724Z,5.35
2023-04-01T20:53:49.410Z,6.72
2023-04-01T20:54:11.587Z,8.07
2023-04-01T20:54:53.247Z,4.57
2023-04-01T20:55:19.961Z,6.47
2023-04-01T20:55:59.619Z,7.95
2023-04-01T20:56:26.195Z,7.78
2023-04-01T20:56:49.662Z,9.40
2023-04-01T20:57:24.464Z,5.85
2023-04-01T20:57:57.488Z,5.47
2023-04-01T20:58:20.017Z,6.57
2023-04-01T20:58:53.108Z,7.07
2023-04-01T20:59:24.360Z,7.60
2023-04-01T21:00:03.361Z,5.93
2023-04-01T21:00:42.569Z,6.07
2023-04-01T21:01:30.029Z,5.68
2023-04-01T21:02:06.119Z,6.47
2023-04-01T21:02:39.109Z,6.75
2023-04-01T21:03:35.030Z,14.95
2023-04-01T21:04:18.134Z,6.28
2023-04-01T21:05:01.778Z,9.57
2023-04-01T21:05:20.890Z,7.60
2023-04-01T21:05:40.396Z,9.88
2023-04-01T21:06:03.608Z,8.43
2023-04-01T21:06:21.153Z,7.13
2023-04-01T21:06:37.269Z,10.25
2023-04-01T21:07:11.818Z,9.95
2023-04-01T21:07:53.201Z,8.80
2023-04-01T21:08:34.547Z,9.63
2023-04-01T21:09:02.171Z,8.85
2023-04-01T21:09:31.460Z,12.77
2023-04-01T21:09:47.874Z,8.15
2023-04-01T21:10:30.188Z,8.63
2023-04-01T21:10:56.621Z,8.45
2023-04-01T21:11:26.765Z,8.38
2023-04-01T21:11:52.228Z,11.15
2023-04-01T21:12:03.586Z,6.43
2023-04-01T21:12:28.334Z,7.60
2023-04-01T21:13:24.188Z,5.50
2023-04-01T21:13:51.555Z,7.15
2023-04-01T21:14:08.836Z,8.43
2023-04-01T21:14:35.152Z,10.93
2023-04-01T21:14:55.138Z,5.50
2023-04-01T21:15:28.140Z,5.47
2023-04-01T21:16:06.724Z,6.63
2023-04-01T21:16:45.125Z,6.95
2023-04-01T21:17:15.619Z,5.15
2023-04-01T21:18:05.931Z,10.57
2023-04-01T21:18:20.575Z,11.70
2023-04-01T21:18:41.035Z,10.93
2023-04-01T21:19:18.963Z,8.38
2023-04-01T21:20:12.338Z,10.20
2023-04-01T21:20:35.626Z,9.80
2023-04-01T21:20:56.258Z,8.57
2023-04-01T21:21:28.927Z,10.82
2023-04-01T21:21:58.313Z,15.38
2023-04-01T21:22:18.762Z,14.82
2023-04-01T21:23:08.469Z,14.65
2023-04-01T21:23:55.591Z,9.63
2023-04-01T21:24:34.557Z,9.63
2023-04-01T21:25:22.204Z,11.93
2023-04-01T21:25:51.632Z,8.05
2023-04-01T21:26:05.836Z,9.15
2023-04-01T21:26:36.282Z,7.97
2023-04-01T21:27:06.614Z,8.95
2023-04-01T21:28:03.320Z,6.22
2023-04-01T21:28:55.993Z,8.23
2023-04-01T21:29:28.462Z,8.18
2023-04-01T21:29:51.735Z,8.27
2023-04-01T21:30:24.709Z,12.93
2023-04-01T21:30:59.881Z,6.70
2023-04-01T21:31:11.348Z,8.52
2023-04-01T21:31:49.406Z,7.78
2023-04-01T21:32:00.841Z,8.93
2023-04-01T21:32:41.499Z,9.70
2023-04-01T21:33:13.814Z,8.07
2023-04-01T21:33:44.037Z,5.95
2023-04-01T21:34:19.321Z,7.35
2023-04-01T21:34:43.063Z,12.18
2023-04-01T21:35:19.168Z,7.88
2023-04-01T21:35:36.864Z,7.47
2023-04-01T21:36:20.573Z,7.15
2023-04-01T21:37:00.442Z,6.32
2023-04-01T21:37:44.461Z,7.65
2023-04-01T21:38:22.068Z,8.35
2023-04-01T21:39:09.304Z,7.63
2023-04-01T21:39:48.506Z,5.78
2023-04-01T21:40:24.575Z,9.52
2023-04-01T21:40:50.715Z,12.30
2023-04-01T21:41:45.003Z,5.40
2023-04-01T21:41:59.384Z,3.67
2023-04-01T21:42:34.738Z,4.18
2023-04-01T21:43:10.098Z,8.73
2023-04-01T21:43:49.034Z,7.38
2023-04-01T21:44:21.669Z,5.72
2023-04-01T21:44:36.344Z,7.72
2023-04-01T21:45:12.873Z,8.55
2023-04-01T21:45:33.530Z,5.68
2023-04-01T21:46:13.253Z,6.40
2023-04-01T21:46:40.530Z,4.75
2023-04-01T21:47:19.641Z,4.90
2023-04-01T21:47:40.002Z,4.20
2023-04-01T21:48:06.694Z,5.63
2023-04-01T21:48:50.545Z,4.68
2023-04-01T21:49:29.830Z,4.88
2023-04-01T21:50:03.132Z,6.57
2023-04-01T21:50:23.647Z,8.15
2023-04-01T21:50:48.284Z,9.02
2023-04-01T21:51:23.011Z,8.52
2023-04-01T21:51:46.870Z,6.28
2023-04-01T21:52:28.470Z,8.70
2023-04-01T21:52:55.035Z,20.20
2023-04-01T21:53:27.172Z,22.85
2023-04-01T21:54:09.364Z,17.83
2023-04-01T21:54:48.299Z,13.70
2023-04-01T21:55:05.464Z,16.52
2023-04-01T21:55:19.468Z,16.25
2023-04-01T21:55:46.675Z,17.73
2023-04-01T21:56:23.067Z,16.38
2023-04-01T21:56:34.385Z,18.23
2023-04-01T21:56:48.806Z,18.00
2023-04-01T21:57:03.193Z,12.88
2023-04-01T21:57:23.654Z,12.88
2023-04-01T21:58:11.134Z,11.77
2023-04-01T21:58:43.932Z,8.63
2023-04-01T21:59:18.959Z,10.32
2023-04-01T21:59:56.419Z,7.18
2023-04-01T22:00:13.708Z,9.27
2023-04-01T22:00:48.622Z,7.05
2023-04-01T22:01:05.725Z,5.97
2023-04-01T22:01:38.527Z,5.78
2023-04-01T22:02:02.347Z,5.22
2023-04-01T22:02:19.773Z,5.75
2023-04-01T22:02:52.538Z,8.27
2023-04-01T22:03:27.924Z,6.43
2023-04-01T22:04:17.141Z,5.60
2023-04-01T22:04:50.338Z,7.15
2023-04-01T22:05:41.557Z,4.80
2023-04-01T22:06:01.501Z,4.57
2023-04-01T22:06:18.362Z,6.45
2023-04-01T22:06:40.969Z,6.35
2023-04-01T22:07:04.693Z,4.30
2023-04-01T22:07:22.643Z,4.20
2023-04-01T22:08:03.318Z,5.75
2023-04-01T22:08:56.494Z,4.70
2023-04-01T22:09:30.068Z,4.53
2023-04-01T22:09:58.180Z,5.53
2023-04-01T22:10:26.704Z,4.70
2023-04-01T22:10:47.886Z,5.90
2023-04-01T22:11:14.546Z,6.45
2023-04-01T22:11:25.899Z,4.25
2023-04-01T22:11:51.366Z,4.40
2023-04-01T22:12:16.128Z,4.60
2023-04-01T22:12:38.977Z,5.82
2023-04-01T22:12:56.210Z,8.93
2023-04-01T22:13:26.379Z,6.70
2023-04-01T22:13:49.866Z,5.28
2023-04-01T22:14:28.969Z,4.10
2023-04-01T22:14:53.950Z,4.05
2023-04-01T22:15:05.277Z,3.92
2023-04-01T22:15:28.580Z,5.78
2023-04-01T22:15:58.870Z,4.80
2023-04-01T22:16:30.740Z,4.75
2023-04-01T22:16:53.000Z,4.93
2023-04-01T22:17:22.847Z,4.20
2023-04-01T22:17:41.103Z,4.20
2023-04-01T22:18:00.247Z,3.72
2023-04-01T22:18:24.383Z,4.07
2023-04-01T22:18:46.623Z,4.68
2023-04-01T22:19:07.515Z,3.90
2023-04-01T22:19:42.165Z,3.60
2023-04-01T22:20:24.719Z,5.97
2023-04-01T22:21:19.752Z,5.97
2023-04-01T22:21:31.126Z,6.65
2023-04-01T22:21:47.603Z,6.63
2023-04-01T22:22:20.669Z,5.43
2023-04-01T22:22:50.400Z,3.90
2023-04-01T22:23:26.170Z,5.18
2023-04-01T22:24:03.597Z,5.03
2023-04-01T22:24:29.374Z,4.10
2023-04-01T22:25:02.832Z,5.13
2023-04-01T22:25:14.147Z,5.18
2023-04-01T22:25:44.036Z,5.63
2023-04-01T22:25:56.970Z,5.05
2023-04-01T22:26:17.423Z,5.18
2023-04-01T22:26:38.925Z,6.45
2023-04-01T22:27:02.098Z,5.55
2023-04-01T22:27:48.587Z,6.43
2023-04-01T22:28:10.058Z,6.60
2023-04-01T22:28:58.532Z,5.95
2023-04-01T22:29:28.669Z,4.95
2023-04-01T22:30:21.317Z,4.80
2023-04-01T22:30:42.168Z,4.15
2023-04-01T22:31:00.096Z,5.75
2023-04-01T22:31:17.021Z,6.90
2023-04-01T22:31:41.971Z,5.47
2023-04-01T22:32:01.282Z,4.65
2023-04-01T22:32:43.175Z,5.50
2023-04-01T22:33:25.911Z,5.50
2023-04-01T22:33:52.435Z,5.55
2023-04-01T22:34:03.854Z,6.53
2023-04-01T22:34:38.594Z,6.53
2023-04-01T22:35:01.082Z,5.32
2023-04-01T22:35:28.331Z,4.05
2023-04-01T22:36:36.894Z,7.70
2023-04-01T22:36:57.711Z,5.07
2023-04-01T22:37:47.341Z,10.57
2023-04-01T22:38:10.824Z,5.90
2023-04-01T22:38:40.026Z,6.03
2023-04-01T22:38:53.962Z,5.13
2023-04-01T22:39:20.292Z,5.32
2023-04-01T22:39:51.931Z,7.45
2023-04-01T22:40:30.840Z,3.85
2023-04-01T22:41:14.866Z,5.30
2023-04-01T22:41:28.860Z,6.57
2023-04-01T22:42:01.164Z,9.63
2023-04-01T22:42:41.341Z,7.93
2023-04-01T22:43:05.132Z,5.05
2023-04-01T22:43:31.280Z,4.78
2023-04-01T22:43:44.661Z,7.47
2023-04-01T22:43:58.137Z,6.72
2023-04-01T22:44:32.103Z,3.78
2023-04-01T22:45:04.386Z,5.07
2023-04-01T22:45:51.057Z,4.70
2023-04-01T22:46:11.209Z,9.43
2023-04-01T22:46:50.296Z,8.77
2023-04-01T22:47:10.460Z,7.57
2023-04-01T22:47:47.191Z,5.38
2023-04-01T22:48:07.947Z,9.13
2023-04-01T22:48:41.337Z,6.47
2023-04-01T22:48:55.630Z,7.65
2023-04-01T22:49:23.117Z,4.40
2023-04-01T22:49:42.877Z,4.95
2023-04-01T22:50:08.656Z,4.90
2023-04-01T22:50:29.658Z,5.18
2023-04-01T22:50:49.098Z,4.72
2023-04-01T22:51:32.732Z,4.22
2023-04-01T22:51:54.227Z,6.00
2023-04-01T22:52:30.366Z,9.93
2023-04-01T22:52:44.505Z,5.35
2023-04-01T22:53:08.921Z,6.18
2023-04-01T22:53:38.338Z,5.70
2023-04-01T22:53:55.678Z,5.18
2023-04-01T22:54:21.916Z,4.97
2023-04-01T22:54:40.456Z,4.88
2023-04-01T22:54:57.906Z,4.65
2023-04-01T22:55:30.914Z,4.20
2023-04-01T22:55:52.915Z,3.13
2023-04-01T22:56:12.103Z,3.67
2023-04-01T22:56:30.094Z,3.67
2023-04-01T22:56:47.298Z,6.00
2023-04-01T22:57:05.084Z,5.95
2023-04-01T22:57:20.962Z,3.55
2023-04-01T22:57:42.875Z,4.65
2023-04-01T22:58:15.873Z,5.63
2023-04-01T22:58:41.483Z,8.40
2023-04-01T22:59:05.205Z,8.45
2023-04-01T22:59:47.238Z,8.35
2023-04-01T23:00:15.129Z,6.85
2023-04-01T23:00:41.235Z,5.40
2023-04-01T23:01:00.603Z,4.43
2023-04-01T23:01:17.116Z,3.58
2023-04-01T23:01:34.045Z,4.55
2023-04-01T23:02:36.192Z,5.50
2023-04-01T23:03:07.675Z,3.53
2023-04-01T23:03:39.710Z,4.93
2023-04-01T23:03:52.833Z,7.40
2023-04-01T23:04:05.936Z,6.10
2023-04-01T23:04:21.914Z,5.75
2023-04-01T23:04:38.371Z,4.55
2023-04-01T23:04:59.042Z,5.40
2023-04-01T23:05:16.768Z,4.05
2023-04-01T23:05:30.048Z,6.03
2023-04-01T23:05:49.284Z,6.50
2023-04-01T23:06:03.847Z,3.83
2023-04-01T23:06:39.286Z,5.45
2023-04-01T23:06:55.909Z,4.05
2023-04-01T23:07:59.967Z,5.82
2023-04-01T23:08:34.282Z,4.43
2023-04-01T23:09:06.668Z,4.87
2023-04-01T23:09:22.530Z,2.85
2023-04-01T23:09:38.729Z,3.17
2023-04-01T23:09:51.470Z,3.38
2023-04-01T23:10:06.871Z,3.03
2023-04-01T23:10:40.304Z,6.00
2023-04-01T23:10:58.714Z,1.92
2023-04-01T23:11:35.224Z,4.22
2023-04-01T23:11:56.358Z,5.53
2023-04-01T23:12:18.523Z,3.97
2023-04-01T23:12:32.315Z,3.15
2023-04-01T23:12:45.822Z,3.53
2023-04-01T23:13:02.321Z,5.15
2023-04-01T23:13:21.414Z,9.77
2023-04-01T23:13:38.100Z,10.25
2023-04-01T23:14:21.814Z,4.05
2023-04-01T23:14:40.288Z,5.43
2023-04-01T23:14:59.163Z,5.28
2023-04-01T23:15:14.788Z,7.85
2023-04-01T23:15:28.351Z,8.60
2023-04-01T23:15:41.245Z,4.55
2023-04-01T23:15:54.813Z,3.70
2023-04-01T23:16:10.141Z,4.07
2023-04-01T23:16:29.611Z,4.45
2023-04-01T23:16:48.783Z,4.30
2023-04-01T23:17:14.793Z,4.60
2023-04-01T23:17:41.311Z,6.15
2023-04-01T23:18:07.173Z,5.75
2023-04-01T23:18:42.739Z,6.13
2023-04-01T23:19:01.544Z,6.15
2023-04-01T23:19:29.715Z,7.97
2023-04-01T23:20:16.226Z,4.93
2023-04-01T23:20:55.422Z,5.85
2023-04-01T23:21:21.736Z,5.85
2023-04-01T23:21:41.239Z,6.75
2023-04-01T23:22:10.128Z,6.68
2023-04-01T23:23:12.377Z,5.88
2023-04-01T23:24:22.354Z,6.20
2023-04-01T23:24:41.330Z,9.85
2023-04-01T23:25:07.319Z,8.02
2023-04-01T23:25:26.013Z,7.40
2023-04-01T23:25:54.161Z,6.90
2023-04-01T23:26:21.068Z,7.00
2023-04-01T23:26:44.251Z,10.70
2023-04-01T23:27:11.772Z,7.65
2023-04-01T23:27:37.510Z,7.68
2023-04-01T23:28:05.152Z,7.85
2023-04-01T23:28:16.488Z,7.67
2023-04-01T23:28:47.251Z,8.40
2023-04-01T23:28:59.694Z,6.90
2023-04-01T23:29:17.041Z,7.18
2023-04-01T23:29:29.134Z,6.75
2023-04-01T23:29:40.877Z,8.70
2023-04-01T23:29:52.366Z,9.40
2023-04-01T23:30:04.417Z,8.45
2023-04-01T23:30:40.434Z,6.90
2023-04-01T23:30:53.084Z,6.07
2023-04-01T23:31:04.689Z,7.70
2023-04-01T23:31:38.205Z,8.40
2023-04-01T23:31:58.371Z,8.77
2023-04-01T23:32:30.453Z,8.57
2023-04-01T23:32:44.582Z,7.03
2023-04-01T23:33:16.457Z,6.78
2023-04-01T23:33:32.193Z,6.15
2023-04-01T23:33:43.633Z,5.70
2023-04-01T23:33:57.886Z,5.53
2023-04-01T23:34:12.375Z,5.18
2023-04-01T23:34:35.724Z,5.65
2023-04-01T23:34:50.890Z,8.50
2023-04-01T23:35:02.599Z,9.32
2023-04-01T23:35:17.442Z,8.55
2023-04-01T23:35:28.881Z,8.15
2023-04-01T23:35:50.684Z,8.07
2023-04-01T23:36:15.793Z,10.18
2023-04-01T23:36:28.533Z,7.72
2023-04-01T23:36:43.491Z,7.13
2023-04-01T23:37:00.686Z,6.90
2023-04-01T23:37:14.115Z,7.40
2023-04-01T23:37:27.029Z,7.63
2023-04-01T23:37:38.489Z,7.68
2023-04-01T23:37:49.903Z,8.43
2023-04-01T23:38:01.636Z,9.73
2023-04-01T23:38:13.282Z,9.70
2023-04-01T23:38:27.139Z,8.82
2023-04-01T23:38:41.128Z,7.18
2023-04-01T23:38:53.202Z,6.68